METAR Data
IDs: Format: Raw Decoded Include TAF

Data at: 1418 UTC 21 Apr 2021

METAR for:KEST (Estherville Muni, IA, US)
Text:KEST 211352Z AUTO 35013KT 10SM CLR M01/M10 A3022 RMK AO2 SLP249 T10061100
Temperature: -0.6°C ( 31°F)
Dewpoint:-10.0°C ( 14°F) [RH = 49%]
Pressure (altimeter):30.22 inches Hg (1023.5 mb) [Sea level pressure: 1024.9 mb]
Winds:from the N (350 degrees) at 15 MPH (13 knots; 6.7 m/s)
Visibility:10 or more sm (16+ km)
Ceiling:at least 12,000 feet AGL
Clouds:sky clear below 12,000 feet AGL
QC Flag:automated observation with no human augmentation